createdAt,value
2019-02-16T00:01:20.341Z,59.05
2019-02-16T00:06:22.528Z,59.24
2019-02-16T00:11:24.127Z,59.28
2019-02-16T00:16:25.881Z,59.12
2019-02-16T00:21:27.589Z,58.92
2019-02-16T00:26:29.320Z,58.92
2019-02-16T00:31:31.091Z,59.04
2019-02-16T00:36:32.677Z,58.94
2019-02-16T00:41:34.516Z,58.98
2019-02-16T00:46:36.174Z,58.92
2019-02-16T00:51:37.729Z,58.96
2019-02-16T00:56:39.296Z,58.91
2019-02-16T01:01:40.943Z,59.06
2019-02-16T01:06:42.489Z,58.84
2019-02-16T01:11:44.097Z,59.04
2019-02-16T01:16:45.658Z,59.19
2019-02-16T01:21:47.348Z,59.09
2019-02-16T01:26:48.964Z,59.17
2019-02-16T01:31:50.552Z,59.19
2019-02-16T01:36:52.113Z,59.11
2019-02-16T01:41:53.754Z,59.27
2019-02-16T01:46:55.308Z,59.38
2019-02-16T01:51:56.870Z,59.25
2019-02-16T01:56:58.434Z,59.54
2019-02-16T02:02:00.011Z,59.78
2019-02-16T02:07:02.200Z,59.87
2019-02-16T02:12:03.878Z,59.92
2019-02-16T02:17:05.432Z,59.85
2019-02-16T02:22:07.072Z,59.89
2019-02-16T02:27:08.816Z,59.72
2019-02-16T02:32:10.572Z,59.72
2019-02-16T02:37:12.139Z,59.61
2019-02-16T02:42:13.697Z,59.77
2019-02-16T02:47:15.270Z,59.77
2019-02-16T02:52:16.885Z,59.62
2019-02-16T02:57:18.440Z,59.61
2019-02-16T03:02:20.000Z,59.59
2019-02-16T03:07:21.853Z,59.56
2019-02-16T03:12:23.409Z,59.57
2019-02-16T03:17:24.964Z,59.41
2019-02-16T03:23:11.073Z,59.26
2019-02-16T03:28:36.303Z,59.07
2019-02-16T03:34:04.137Z,59.00
2019-02-16T03:39:10.695Z,59.07
2019-02-16T03:44:12.384Z,59.17
2019-02-16T03:49:13.946Z,59.13
2019-02-16T03:54:15.515Z,59.19
2019-02-16T03:59:17.117Z,59.17
2019-02-16T04:04:18.667Z,59.12
2019-02-16T04:09:20.224Z,59.11
2019-02-16T04:14:21.791Z,58.69
2019-02-16T04:19:23.354Z,58.51
2019-02-16T04:24:24.996Z,57.96
2019-02-16T04:29:26.723Z,57.90
2019-02-16T04:34:28.308Z,57.78
2019-02-16T04:39:29.967Z,57.65
2019-02-16T04:44:31.634Z,57.23
2019-02-16T04:49:33.237Z,56.94
2019-02-16T04:54:34.906Z,56.47
2019-02-16T04:59:36.512Z,56.21
2019-02-16T05:04:38.273Z,56.12
2019-02-16T05:09:39.824Z,56.29
2019-02-16T05:14:41.373Z,55.99
2019-02-16T05:19:42.983Z,55.89
2019-02-16T05:24:44.537Z,55.58
2019-02-16T05:29:46.241Z,55.64
2019-02-16T05:34:47.785Z,55.62
2019-02-16T05:39:49.370Z,55.29
2019-02-16T05:44:51.162Z,54.99
2019-02-16T05:49:52.783Z,55.16
2019-02-16T05:54:54.337Z,55.05
2019-02-16T05:59:55.894Z,55.28
2019-02-16T06:04:57.700Z,55.31
2019-02-16T06:09:59.361Z,55.72
2019-02-16T06:15:00.929Z,55.03
2019-02-16T06:20:06.556Z,54.38
2019-02-16T06:25:08.218Z,53.30
2019-02-16T06:30:10.049Z,51.60
2019-02-16T06:35:13.837Z,50.26
2019-02-16T06:40:15.403Z,48.94
2019-02-16T06:45:17.010Z,47.80
2019-02-16T06:50:18.625Z,46.73
2019-02-16T06:55:20.495Z,45.26
2019-02-16T07:00:24.209Z,44.30
2019-02-16T07:05:25.800Z,43.17
2019-02-16T07:10:27.359Z,42.00
2019-02-16T07:15:29.121Z,41.59
2019-02-16T07:20:30.753Z,40.85
2019-02-16T07:25:32.312Z,41.72
2019-02-16T07:30:33.929Z,40.98
2019-02-16T07:35:35.637Z,39.90
2019-02-16T07:40:37.605Z,39.43
2019-02-16T07:45:42.247Z,38.91
2019-02-16T07:50:46.816Z,38.90
2019-02-16T07:55:54.009Z,36.98
2019-02-16T08:01:06.429Z,36.63
2019-02-16T08:06:12.539Z,36.58
2019-02-16T08:11:16.094Z,36.74
2019-02-16T08:16:17.713Z,36.05
2019-02-16T08:21:24.095Z,36.46
2019-02-16T08:26:39.304Z,38.97
2019-02-16T08:31:42.837Z,40.53
2019-02-16T08:36:46.314Z,40.64
2019-02-16T08:41:55.766Z,39.17
2019-02-16T08:47:16.049Z,39.36
2019-02-16T08:52:34.728Z,39.31
2019-02-16T08:57:39.354Z,37.58
2019-02-16T09:02:42.828Z,37.02
2019-02-16T09:07:46.295Z,36.06
2019-02-16T09:12:49.766Z,34.73
2019-02-16T09:17:59.115Z,36.25
2019-02-16T09:23:06.984Z,31.85
2019-02-16T09:28:11.177Z,33.57
2019-02-16T09:33:26.721Z,34.97
2019-02-16T09:38:28.279Z,33.96
2019-02-16T09:43:29.887Z,32.22
2019-02-16T09:48:36.120Z,33.56
2019-02-16T09:53:45.469Z,31.15
2019-02-16T09:58:51.801Z,30.73
2019-02-16T10:03:58.152Z,30.44
2019-02-16T10:09:04.510Z,30.42
2019-02-16T10:14:16.309Z,29.73
2019-02-16T10:19:23.933Z,29.10
2019-02-16T10:24:34.223Z,28.69
2019-02-16T10:29:46.637Z,29.27
2019-02-16T10:34:48.256Z,30.42
2019-02-16T10:40:09.783Z,28.95
2019-02-16T10:45:19.981Z,29.59
2019-02-16T10:50:23.446Z,31.02
2019-02-16T10:55:42.030Z,31.17
2019-02-16T11:00:45.508Z,31.96
2019-02-16T11:05:48.976Z,29.86
2019-02-16T11:10:52.442Z,28.31
2019-02-16T11:15:58.648Z,26.69
2019-02-16T11:21:04.712Z,27.71
2019-02-16T11:26:11.171Z,26.01
2019-02-16T11:31:26.725Z,24.68
2019-02-16T11:36:30.260Z,25.15
2019-02-16T11:41:33.778Z,25.80
2019-02-16T11:46:52.511Z,24.61
2019-02-16T11:52:00.040Z,24.33
2019-02-16T11:57:12.672Z,23.97
2019-02-16T12:02:16.160Z,22.84
2019-02-16T12:07:25.277Z,20.89
2019-02-16T12:12:46.762Z,22.85
2019-02-16T12:18:07.085Z,22.68
2019-02-16T12:23:23.201Z,23.58
2019-02-16T12:28:26.672Z,23.92
2019-02-16T12:33:32.960Z,23.98
2019-02-16T12:38:45.621Z,23.53
2019-02-16T12:44:01.384Z,22.21
2019-02-16T12:49:17.087Z,22.88
2019-02-16T12:54:35.749Z,22.24
2019-02-16T12:59:48.223Z,23.85
2019-02-16T13:05:08.386Z,24.15
2019-02-16T13:10:11.847Z,22.58
2019-02-16T13:15:17.937Z,23.47
2019-02-16T13:20:24.240Z,23.67
2019-02-16T13:25:27.707Z,23.39
2019-02-16T13:30:34.118Z,23.65
2019-02-16T13:35:47.693Z,24.28
2019-02-16T13:40:53.858Z,24.51
2019-02-16T13:45:59.964Z,24.63
2019-02-16T13:51:03.505Z,24.41
2019-02-16T13:56:18.637Z,25.66
2019-02-16T14:01:22.103Z,24.41
2019-02-16T14:06:44.037Z,24.63
2019-02-16T14:11:53.136Z,24.83
2019-02-16T14:17:09.882Z,25.39
2019-02-16T14:22:11.621Z,25.87
2019-02-16T14:27:13.185Z,27.46
2019-02-16T14:32:14.759Z,25.74
2019-02-16T14:37:20.863Z,26.66
2019-02-16T14:42:22.493Z,27.56
2019-02-16T14:47:24.100Z,28.97
2019-02-16T14:52:25.729Z,28.54
2019-02-16T14:57:27.294Z,29.05
2019-02-16T15:02:29.128Z,29.28
2019-02-16T15:07:30.690Z,30.06
2019-02-16T15:12:32.275Z,27.27
2019-02-16T15:17:33.828Z,29.55
2019-02-16T15:22:35.459Z,30.72
2019-02-16T15:27:37.014Z,32.74
2019-02-16T15:32:40.589Z,31.36
2019-02-16T15:37:42.672Z,33.01
2019-02-16T15:42:44.652Z,33.87
2019-02-16T15:47:46.261Z,33.77
2019-02-16T15:52:47.906Z,34.05
2019-02-16T15:57:49.489Z,35.05
2019-02-16T16:02:51.064Z,34.45
2019-02-16T16:07:54.525Z,34.13
2019-02-16T16:13:01.991Z,33.91
2019-02-16T16:18:17.917Z,33.67
2019-02-16T16:23:39.908Z,33.71
2019-02-16T16:29:00.533Z,33.40
2019-02-16T16:34:16.019Z,33.47
2019-02-16T16:39:19.486Z,34.39
2019-02-16T16:44:25.869Z,34.87
2019-02-16T16:49:38.499Z,35.42
2019-02-16T16:54:41.965Z,36.15
2019-02-16T16:59:49.500Z,36.48
2019-02-16T17:05:05.016Z,36.81
2019-02-16T17:10:11.700Z,36.57
2019-02-16T17:15:16.450Z,36.78
2019-02-16T17:20:23.049Z,36.85
2019-02-16T17:25:35.567Z,36.90
2019-02-16T17:30:41.784Z,36.72
2019-02-16T17:35:51.333Z,37.27
2019-02-16T17:41:09.751Z,37.52
2019-02-16T17:46:30.497Z,36.90
2019-02-16T17:51:50.733Z,37.58
2019-02-16T17:56:55.354Z,37.51
2019-02-16T18:02:08.095Z,37.96
2019-02-16T18:07:09.661Z,38.11
2019-02-16T18:12:11.246Z,38.36
2019-02-16T18:17:17.497Z,38.46
2019-02-16T18:22:21.802Z,38.53
2019-02-16T18:27:28.199Z,38.15
2019-02-16T18:32:32.931Z,38.63
2019-02-16T18:37:42.139Z,38.41
2019-02-16T18:43:02.609Z,38.26
2019-02-16T18:48:08.830Z,38.94
2019-02-16T18:53:18.365Z,39.32
2019-02-16T18:58:31.137Z,39.60
2019-02-16T19:03:34.609Z,39.26
2019-02-16T19:08:38.063Z,39.39
2019-02-16T19:13:47.487Z,39.83
2019-02-16T19:18:51.301Z,40.43
2019-02-16T19:24:03.692Z,40.77
2019-02-16T19:29:14.693Z,40.73
2019-02-16T19:34:16.255Z,40.85
2019-02-16T19:39:22.602Z,41.76
2019-02-16T19:44:24.233Z,41.91
2019-02-16T19:49:28.803Z,42.76
2019-02-16T19:54:35.168Z,43.83
2019-02-16T19:59:55.129Z,44.59
2019-02-16T20:05:16.875Z,45.52
2019-02-16T20:10:32.706Z,44.86
2019-02-16T20:15:46.198Z,44.46
2019-02-16T20:20:48.010Z,44.79
2019-02-16T20:25:53.809Z,45.54
2019-02-16T20:31:06.315Z,46.54
2019-02-16T20:36:26.020Z,46.73
2019-02-16T20:41:29.487Z,47.24
2019-02-16T20:46:44.946Z,47.12
2019-02-16T20:52:07.325Z,46.20
2019-02-16T20:57:11.762Z,44.77
2019-02-16T21:02:31.238Z,44.05
2019-02-16T21:07:51.568Z,44.30
2019-02-16T21:13:01.045Z,44.24
2019-02-16T21:18:20.044Z,43.50
2019-02-16T21:23:27.811Z,42.79
2019-02-16T21:28:37.145Z,42.74
2019-02-16T21:33:40.622Z,43.45
2019-02-16T21:38:48.030Z,44.00
2019-02-16T21:43:51.495Z,43.76
2019-02-16T21:48:55.005Z,44.53
2019-02-16T21:54:10.431Z,45.16
2019-02-16T21:59:19.502Z,45.58
2019-02-16T22:04:26.112Z,45.93
2019-02-16T22:09:29.686Z,46.17
2019-02-16T22:14:31.250Z,46.16
2019-02-16T22:19:32.811Z,45.11
2019-02-16T22:24:34.478Z,44.72
2019-02-16T22:29:36.042Z,45.32
2019-02-16T22:34:37.607Z,47.01
2019-02-16T22:39:39.168Z,47.67
2019-02-16T22:44:40.723Z,48.64
2019-02-16T22:49:42.318Z,47.61
2019-02-16T22:54:43.957Z,46.37
2019-02-16T22:59:45.817Z,46.18
2019-02-16T23:04:47.377Z,46.60
2019-02-16T23:09:48.968Z,46.52
2019-02-16T23:14:50.776Z,47.73
2019-02-16T23:19:52.603Z,47.95
2019-02-16T23:24:54.972Z,49.32
2019-02-16T23:29:57.652Z,50.22
2019-02-16T23:34:59.525Z,51.19
2019-02-16T23:40:01.081Z,51.42
2019-02-16T23:45:06.863Z,51.35
2019-02-16T23:50:10.621Z,52.19
2019-02-16T23:55:12.241Z,51.14
